createdAt,value
2019-05-28T00:12:13.357Z,26.90
2019-05-28T00:14:44.199Z,26.80
2019-05-28T00:17:15.396Z,26.80
2019-05-28T00:19:46.237Z,26.90
2019-05-28T00:22:17.375Z,27.00
2019-05-28T00:24:48.165Z,27.00
2019-05-28T00:27:19.240Z,27.00
2019-05-28T00:29:50.745Z,27.00
2019-05-28T00:32:21.843Z,27.00
2019-05-28T00:34:52.717Z,27.00
2019-05-28T00:37:24.678Z,27.10
2019-05-28T00:39:55.646Z,27.10
2019-05-28T00:42:46.439Z,27.10
2019-05-28T00:45:17.970Z,27.10
2019-05-28T00:47:48.924Z,27.10
2019-05-28T00:50:20.560Z,27.10
2019-05-28T00:52:51.594Z,27.10
2019-05-28T00:55:22.839Z,27.20
2019-05-28T00:57:55.122Z,27.20
2019-05-28T01:00:36.838Z,27.30
2019-05-28T01:03:04.564Z,27.30
2019-05-28T01:05:35.964Z,27.30
2019-05-28T01:08:06.774Z,27.30
2019-05-28T01:10:37.660Z,27.40
2019-05-28T01:13:08.954Z,27.40
2019-05-28T01:15:39.772Z,27.40
2019-05-28T01:18:10.754Z,27.40
2019-05-28T01:20:43.994Z,27.40
2019-05-28T01:23:14.962Z,27.40
2019-05-28T01:25:46.156Z,27.40
2019-05-28T01:28:17.867Z,27.40
2019-05-28T01:30:57.574Z,27.40
2019-05-28T01:33:24.664Z,27.40
2019-05-28T01:35:55.475Z,27.50
2019-05-28T01:38:26.171Z,27.50
2019-05-28T01:40:56.997Z,27.50
2019-05-28T01:43:27.866Z,27.60
2019-05-28T01:45:59.510Z,27.60
2019-05-28T01:48:49.837Z,27.60
2019-05-28T01:51:20.935Z,27.60
2019-05-28T01:53:51.942Z,27.70
2019-05-28T01:56:22.997Z,27.70
2019-05-28T01:58:53.843Z,27.70
2019-05-28T02:01:24.567Z,27.70
2019-05-28T02:03:55.477Z,27.80
2019-05-28T02:06:26.374Z,27.70
2019-05-28T02:08:57.262Z,27.80
2019-05-28T02:11:28.082Z,27.80
2019-05-28T02:13:58.982Z,27.80
2019-05-28T02:16:32.046Z,27.80
2019-05-28T02:19:07.908Z,27.90
2019-05-28T02:21:39.253Z,27.90
2019-05-28T02:24:12.034Z,27.90
2019-05-28T02:26:42.715Z,27.90
2019-05-28T02:29:13.534Z,28.00
2019-05-28T02:31:44.436Z,28.00
2019-05-28T02:34:17.155Z,28.00
2019-05-28T02:36:47.591Z,28.10
2019-05-28T02:39:18.407Z,28.10
2019-05-28T02:41:49.189Z,28.20
2019-05-28T02:44:19.918Z,28.20
2019-05-28T02:46:50.879Z,28.20
2019-05-28T02:49:21.972Z,28.20
2019-05-28T02:51:52.901Z,28.20
2019-05-28T02:54:23.903Z,28.30
2019-05-28T02:56:55.271Z,28.30
2019-05-28T02:59:26.863Z,28.40
2019-05-28T03:01:58.833Z,28.40
2019-05-28T03:04:31.615Z,28.50
2019-05-28T03:07:03.969Z,28.50
2019-05-28T03:09:35.993Z,28.60
2019-05-28T03:12:06.874Z,28.60
2019-05-28T03:14:37.762Z,28.60
2019-05-28T03:17:09.074Z,28.70
2019-05-28T03:19:41.400Z,28.80
2019-05-28T03:22:14.901Z,28.80
2019-05-28T03:24:49.229Z,28.80
2019-05-28T03:27:21.159Z,28.80
2019-05-28T03:29:51.763Z,28.80
2019-05-28T03:32:22.743Z,28.90
2019-05-28T03:34:53.719Z,28.80
2019-05-28T03:37:24.593Z,28.90
2019-05-28T03:39:58.053Z,28.90
2019-05-28T03:42:30.099Z,28.90
2019-05-28T03:45:01.225Z,29.00
2019-05-28T03:47:32.045Z,29.10
2019-05-28T03:50:03.120Z,29.10
2019-05-28T03:52:34.018Z,29.10
2019-05-28T03:55:06.097Z,29.10
2019-05-28T03:57:36.831Z,29.10
2019-05-28T04:00:08.247Z,29.20
2019-05-28T04:02:39.041Z,29.30
2019-05-28T04:05:10.005Z,29.40
2019-05-28T04:07:40.928Z,29.40
2019-05-28T04:10:11.840Z,29.40
2019-05-28T04:12:42.514Z,29.40
2019-05-28T04:15:13.751Z,29.40
2019-05-28T04:17:44.733Z,29.50
2019-05-28T04:20:15.877Z,29.50
2019-05-28T04:22:46.695Z,29.50
2019-05-28T04:25:17.723Z,29.60
2019-05-28T04:27:48.716Z,29.70
2019-05-28T04:30:20.079Z,29.80
2019-05-28T04:32:51.108Z,29.90
2019-05-28T04:35:22.058Z,30.00
2019-05-28T04:37:52.713Z,30.10
2019-05-28T04:40:23.489Z,30.20
2019-05-28T04:42:54.229Z,30.30
2019-05-28T04:45:25.325Z,30.30
2019-05-28T04:47:56.025Z,30.30
2019-05-28T04:50:26.843Z,30.30
2019-05-28T04:52:57.811Z,30.40
2019-05-28T04:55:28.679Z,30.50
2019-05-28T04:57:59.877Z,30.50
2019-05-28T05:00:30.715Z,30.60
2019-05-28T05:03:01.479Z,30.70
2019-05-28T05:05:32.583Z,30.80
2019-05-28T05:08:05.018Z,30.90
2019-05-28T05:10:35.880Z,30.90
2019-05-28T05:13:07.106Z,31.00
2019-05-28T05:15:38.284Z,31.00
2019-05-28T05:18:09.256Z,31.00
2019-05-28T05:20:40.095Z,31.00
2019-05-28T05:23:11.002Z,31.00
2019-05-28T05:25:41.793Z,31.00
2019-05-28T05:28:12.870Z,31.00
2019-05-28T05:30:50.674Z,31.00
2019-05-28T05:33:21.514Z,31.00
2019-05-28T05:35:53.051Z,31.00
2019-05-28T05:38:24.019Z,31.10
2019-05-28T05:40:54.821Z,31.20
2019-05-28T05:43:25.882Z,31.30
2019-05-28T05:45:58.927Z,31.40
2019-05-28T05:48:29.713Z,31.40
2019-05-28T05:51:00.640Z,31.50
2019-05-28T05:53:31.811Z,31.60
2019-05-28T05:56:02.722Z,31.70
2019-05-28T05:58:33.789Z,31.70
2019-05-28T06:01:05.095Z,31.80
2019-05-28T06:03:40.303Z,31.90
2019-05-28T06:06:08.321Z,31.90
2019-05-28T06:08:39.131Z,31.90
2019-05-28T06:11:09.949Z,31.90
2019-05-28T06:13:40.982Z,32.00
2019-05-28T06:16:12.264Z,32.00
2019-05-28T06:18:45.225Z,32.00
2019-05-28T06:21:18.964Z,32.10
2019-05-28T06:23:48.710Z,32.10
2019-05-28T06:26:19.590Z,32.10
2019-05-28T06:28:50.465Z,32.20
2019-05-28T06:31:21.313Z,32.20
2019-05-28T06:33:56.784Z,32.20
2019-05-28T06:36:24.394Z,32.20
2019-05-28T06:38:55.314Z,32.30
2019-05-28T06:41:26.248Z,32.30
2019-05-28T06:43:56.981Z,32.40
2019-05-28T06:46:28.212Z,32.40
2019-05-28T06:48:59.096Z,32.40
2019-05-28T06:51:30.037Z,32.50
2019-05-28T06:54:01.206Z,32.50
2019-05-28T06:56:36.837Z,32.50
2019-05-28T06:59:08.458Z,32.50
2019-05-28T07:01:39.329Z,32.60
2019-05-28T07:04:13.968Z,32.60
2019-05-28T07:06:42.414Z,32.60
2019-05-28T07:09:13.446Z,32.50
2019-05-28T07:11:44.197Z,32.40
2019-05-28T07:14:15.348Z,32.40
2019-05-28T07:16:53.149Z,32.40
2019-05-28T07:19:24.753Z,32.40
2019-05-28T07:21:53.279Z,32.40
2019-05-28T07:24:24.154Z,32.40
2019-05-28T07:26:55.059Z,32.40
2019-05-28T07:29:26.012Z,32.30
2019-05-28T07:31:57.138Z,32.20
2019-05-28T07:34:31.314Z,32.20
2019-05-28T07:37:01.091Z,32.00
2019-05-28T07:39:32.144Z,31.90
2019-05-28T07:42:02.990Z,31.90
2019-05-28T07:44:33.793Z,31.80
2019-05-28T07:47:04.789Z,31.70
2019-05-28T07:49:37.801Z,31.70
2019-05-28T07:52:08.546Z,31.60
2019-05-28T07:54:39.578Z,31.60
2019-05-28T07:57:10.654Z,31.60
2019-05-28T07:59:41.375Z,31.50
2019-05-28T08:02:12.297Z,31.50
2019-05-28T08:04:47.188Z,31.50
2019-05-28T08:07:15.697Z,31.50
2019-05-28T08:09:46.323Z,31.40
2019-05-28T08:12:17.267Z,31.30
2019-05-28T08:14:48.118Z,31.20
2019-05-28T08:17:19.335Z,31.10
2019-05-28T08:19:54.391Z,30.90
2019-05-28T08:22:40.964Z,30.80
2019-05-28T08:24:58.072Z,30.70
2019-05-28T08:27:29.703Z,30.50
2019-05-28T08:30:00.802Z,30.30
2019-05-28T08:32:31.811Z,30.00
2019-05-28T08:35:06.035Z,29.80
2019-05-28T08:37:35.667Z,29.60
2019-05-28T08:40:08.506Z,29.40
2019-05-28T08:42:39.376Z,29.20
2019-05-28T08:45:10.869Z,29.00
2019-05-28T08:47:43.302Z,28.90
2019-05-28T08:50:24.688Z,28.70
2019-05-28T08:52:47.492Z,28.70
2019-05-28T08:55:18.539Z,28.60
2019-05-28T08:57:50.600Z,28.50
2019-05-28T09:00:24.397Z,28.40
2019-05-28T09:02:55.335Z,28.20
2019-05-28T09:05:27.428Z,28.20
2019-05-28T09:08:11.423Z,28.00
2019-05-28T09:17:23.222Z,27.80
2019-05-28T09:20:05.331Z,27.70
2019-05-28T09:22:35.923Z,27.60
2019-05-28T09:25:09.263Z,27.50
2019-05-28T09:27:40.835Z,27.30
2019-05-28T09:30:14.578Z,27.30
2019-05-28T09:32:54.701Z,27.10
2019-05-28T09:35:43.334Z,27.10
2019-05-28T09:38:08.220Z,27.10
2019-05-28T09:40:50.205Z,27.00
2019-05-28T09:43:15.001Z,27.00
2019-05-28T09:45:53.048Z,27.00
2019-05-28T09:48:27.245Z,27.00
2019-05-28T09:51:07.133Z,27.00
2019-05-28T09:53:38.134Z,27.10
2019-05-28T09:56:10.207Z,27.10
2019-05-28T09:58:48.807Z,27.00
2019-05-28T10:01:20.185Z,27.10
2019-05-28T10:03:54.653Z,27.00
2019-05-28T10:06:36.718Z,27.00
2019-05-28T10:09:00.783Z,27.00
2019-05-28T10:11:31.724Z,27.00
2019-05-28T10:14:02.700Z,27.00
2019-05-28T10:16:34.285Z,27.00
2019-05-28T10:19:05.255Z,27.00
2019-05-28T10:21:36.189Z,27.00
2019-05-28T10:24:07.204Z,27.00
2019-05-28T10:26:38.141Z,27.00
2019-05-28T10:29:09.122Z,27.00
2019-05-28T10:31:39.909Z,26.90
2019-05-28T10:34:10.856Z,26.90
2019-05-28T10:36:41.789Z,26.90
2019-05-28T10:39:12.826Z,26.90
2019-05-28T10:41:43.843Z,26.80
2019-05-28T10:44:14.778Z,26.80
2019-05-28T10:46:45.645Z,26.80
2019-05-28T10:49:16.568Z,26.70
2019-05-28T10:51:47.335Z,26.70
2019-05-28T10:54:18.269Z,26.70
2019-05-28T10:56:49.193Z,26.70
2019-05-28T10:59:19.953Z,26.70
2019-05-28T11:01:50.624Z,26.70
2019-05-28T11:04:21.598Z,26.60
2019-05-28T11:06:52.513Z,26.50
2019-05-28T11:09:42.307Z,26.40
2019-05-28T11:12:13.212Z,26.40
2019-05-28T11:14:44.001Z,26.40
2019-05-28T11:17:14.971Z,26.40
2019-05-28T11:19:45.998Z,26.30
2019-05-28T11:22:16.783Z,26.30
2019-05-28T11:24:47.611Z,26.40
2019-05-28T11:27:18.657Z,26.30
2019-05-28T11:29:49.491Z,26.40
2019-05-28T11:32:20.400Z,26.30
2019-05-28T11:34:51.342Z,26.30
2019-05-28T11:37:22.235Z,26.40
2019-05-28T11:39:53.313Z,26.40
2019-05-28T11:42:24.247Z,26.40
2019-05-28T11:44:55.651Z,26.40
2019-05-28T11:47:26.580Z,26.40
2019-05-28T11:49:57.534Z,26.40
2019-05-28T11:52:28.853Z,26.50
2019-05-28T11:54:59.534Z,26.40
2019-05-28T11:57:30.475Z,26.40
2019-05-28T12:00:01.270Z,26.40
2019-05-28T12:02:32.242Z,26.40
2019-05-28T12:05:03.096Z,26.40
2019-05-28T12:07:34.015Z,26.40
2019-05-28T12:10:06.097Z,26.40
2019-05-28T12:12:38.234Z,26.40
2019-05-28T12:15:11.276Z,26.40
2019-05-28T12:17:45.087Z,26.40
2019-05-28T12:20:15.849Z,26.40
2019-05-28T12:22:46.600Z,26.30
2019-05-28T12:25:17.799Z,26.30
2019-05-28T12:27:48.610Z,26.30
2019-05-28T12:30:20.068Z,26.20
2019-05-28T12:32:50.844Z,26.20
2019-05-28T12:35:30.457Z,26.30
2019-05-28T12:37:55.146Z,26.20
2019-05-28T12:40:26.577Z,26.20
2019-05-28T12:42:57.271Z,26.20
2019-05-28T12:45:35.383Z,26.20
2019-05-28T12:48:12.197Z,26.20
2019-05-28T12:50:32.624Z,26.20
2019-05-28T12:53:03.564Z,26.20
2019-05-28T12:55:34.440Z,26.20
2019-05-28T12:58:05.474Z,26.20
2019-05-28T13:00:36.559Z,26.20
2019-05-28T13:03:07.494Z,26.20
2019-05-28T13:05:38.443Z,26.30
2019-05-28T13:08:10.674Z,26.20
2019-05-28T13:10:41.688Z,26.30
2019-05-28T13:13:12.432Z,26.20
2019-05-28T13:15:43.227Z,26.20
2019-05-28T13:18:13.993Z,26.20
2019-05-28T13:20:48.102Z,26.20
2019-05-28T13:23:17.152Z,26.20
2019-05-28T13:25:47.851Z,26.20
2019-05-28T13:28:18.702Z,26.20
2019-05-28T13:30:49.813Z,26.20
2019-05-28T13:33:20.606Z,26.20
2019-05-28T13:35:51.409Z,26.20
2019-05-28T13:38:27.151Z,26.30
2019-05-28T13:40:54.205Z,26.20
2019-05-28T13:43:25.075Z,26.20
2019-05-28T13:45:55.800Z,26.20
2019-05-28T13:48:27.556Z,26.20
2019-05-28T13:50:58.324Z,26.20
2019-05-28T13:53:29.123Z,26.20
2019-05-28T13:56:00.506Z,26.20
2019-05-28T13:58:31.443Z,26.20
2019-05-28T14:01:02.922Z,26.10
2019-05-28T14:03:34.184Z,26.10
2019-05-28T14:06:04.870Z,26.10
2019-05-28T14:08:46.542Z,26.10
2019-05-28T14:11:07.861Z,26.10
2019-05-28T14:13:38.812Z,26.10
2019-05-28T14:16:09.689Z,26.10
2019-05-28T14:18:40.361Z,26.10
2019-05-28T14:21:11.325Z,26.10
2019-05-28T14:23:42.244Z,26.00
2019-05-28T14:26:13.073Z,26.10
2019-05-28T14:28:43.846Z,26.10
2019-05-28T14:31:14.646Z,26.00
2019-05-28T14:33:45.691Z,26.10
2019-05-28T14:36:16.509Z,26.10
2019-05-28T14:39:01.196Z,26.10
2019-05-28T14:41:19.386Z,26.10
2019-05-28T14:43:50.426Z,26.10
2019-05-28T14:46:21.239Z,26.10
2019-05-28T14:48:52.099Z,26.10
2019-05-28T14:51:23.024Z,26.10
2019-05-28T14:53:53.845Z,26.10
2019-05-28T14:56:24.761Z,26.10
2019-05-28T14:58:55.661Z,26.10
2019-05-28T15:01:26.591Z,26.10
2019-05-28T15:03:57.487Z,26.10
2019-05-28T15:06:28.316Z,26.10
2019-05-28T15:08:59.501Z,26.10
2019-05-28T15:11:30.353Z,26.10
2019-05-28T15:14:01.309Z,26.00
2019-05-28T15:16:32.231Z,26.00
2019-05-28T15:19:03.119Z,26.00
2019-05-28T15:21:34.095Z,26.00
2019-05-28T15:24:04.769Z,26.00
2019-05-28T15:26:35.571Z,26.00
2019-05-28T15:29:07.792Z,26.00
2019-05-28T15:31:38.675Z,26.00
2019-05-28T15:34:09.446Z,26.00
2019-05-28T15:36:40.338Z,26.00
2019-05-28T15:39:11.062Z,26.00
2019-05-28T15:41:43.914Z,26.00
2019-05-28T15:44:14.739Z,26.00
2019-05-28T15:46:45.618Z,26.00
2019-05-28T15:49:16.487Z,26.00
2019-05-28T15:51:47.512Z,26.00
2019-05-28T15:54:18.378Z,26.00
2019-05-28T15:56:49.192Z,26.00
2019-05-28T15:59:20.003Z,26.00
2019-05-28T16:01:50.719Z,26.00
2019-05-28T16:04:21.491Z,26.10
2019-05-28T16:06:52.440Z,26.00
2019-05-28T16:09:23.346Z,26.00
2019-05-28T16:11:54.165Z,26.00
2019-05-28T16:14:25.045Z,26.00
2019-05-28T16:16:55.811Z,26.00
2019-05-28T16:19:26.753Z,26.00
2019-05-28T16:21:57.601Z,26.00
2019-05-28T16:24:28.462Z,26.10
2019-05-28T16:26:59.121Z,26.10
2019-05-28T16:29:29.935Z,26.10
2019-05-28T16:32:00.857Z,26.20
2019-05-28T16:34:31.644Z,26.20
2019-05-28T16:37:02.355Z,26.20
2019-05-28T16:39:32.980Z,26.20
2019-05-28T16:42:03.778Z,26.20
2019-05-28T16:44:34.521Z,26.20
2019-05-28T16:47:20.585Z,26.20
2019-05-28T16:49:37.620Z,26.20
2019-05-28T16:52:08.775Z,26.20
2019-05-28T16:54:39.687Z,26.20
2019-05-28T16:57:10.452Z,26.20
2019-05-28T16:59:41.230Z,26.20
2019-05-28T17:02:12.065Z,26.20
2019-05-28T17:04:42.837Z,26.20
2019-05-28T17:07:13.533Z,26.20
2019-05-28T17:09:44.442Z,26.20
2019-05-28T17:12:15.365Z,26.30
2019-05-28T17:14:46.121Z,26.30
2019-05-28T17:17:16.993Z,26.30
2019-05-28T17:19:47.645Z,26.30
2019-05-28T17:22:18.626Z,26.30
2019-05-28T17:24:49.481Z,26.30
2019-05-28T17:27:20.375Z,26.20
2019-05-28T17:29:51.190Z,26.20
2019-05-28T17:32:21.885Z,26.20
2019-05-28T17:34:52.649Z,26.20
2019-05-28T17:37:23.652Z,26.10
2019-05-28T17:39:54.384Z,26.10
2019-05-28T17:42:25.348Z,26.10
2019-05-28T17:44:56.149Z,26.10
2019-05-28T17:47:26.866Z,26.00
2019-05-28T17:49:57.602Z,26.00
2019-05-28T17:52:28.438Z,26.00
2019-05-28T17:54:59.343Z,26.00
2019-05-28T17:57:30.197Z,26.00
2019-05-28T18:00:01.045Z,26.00
2019-05-28T18:02:31.892Z,26.00
2019-05-28T18:05:02.721Z,26.00
2019-05-28T18:07:33.554Z,26.00
2019-05-28T18:10:05.747Z,26.00
2019-05-28T18:12:36.599Z,26.00
2019-05-28T18:15:09.083Z,26.00
2019-05-28T18:17:39.669Z,26.00
2019-05-28T18:20:14.929Z,26.00
2019-05-28T18:22:44.369Z,26.00
2019-05-28T18:25:15.183Z,26.00
2019-05-28T18:27:46.030Z,26.10
2019-05-28T18:30:17.328Z,26.10
2019-05-28T18:32:48.114Z,26.10
2019-05-28T18:35:18.986Z,26.10
2019-05-28T18:37:49.855Z,26.10
2019-05-28T18:40:20.935Z,26.00
2019-05-28T18:42:51.782Z,26.10
2019-05-28T18:45:22.696Z,26.10
2019-05-28T18:47:53.619Z,26.10
2019-05-28T18:50:24.378Z,26.10
2019-05-28T18:52:55.248Z,26.10
2019-05-28T18:55:26.249Z,26.10
2019-05-28T18:57:57.317Z,26.10
2019-05-28T19:00:28.031Z,26.10
2019-05-28T19:02:59.147Z,26.00
2019-05-28T19:05:29.726Z,26.00
2019-05-28T19:08:00.699Z,26.00
2019-05-28T19:10:31.477Z,26.00
2019-05-28T19:13:02.325Z,26.00
2019-05-28T19:15:33.098Z,26.00
2019-05-28T19:18:04.074Z,26.00
2019-05-28T19:20:35.087Z,26.00
2019-05-28T19:23:05.792Z,26.00
2019-05-28T19:25:36.600Z,26.00
2019-05-28T19:28:07.548Z,26.00
2019-05-28T19:30:38.783Z,26.00
2019-05-28T19:33:09.566Z,26.00
2019-05-28T19:35:40.404Z,26.00
2019-05-28T19:38:11.279Z,26.00
2019-05-28T19:40:44.501Z,26.00
2019-05-28T19:43:15.349Z,26.00
2019-05-28T19:45:46.311Z,26.00
2019-05-28T19:48:17.284Z,26.00
2019-05-28T19:50:48.271Z,26.00
2019-05-28T19:53:18.825Z,26.00
2019-05-28T19:55:49.842Z,26.00
2019-05-28T19:58:20.549Z,26.00
2019-05-28T20:00:52.040Z,26.00
2019-05-28T20:03:22.822Z,26.00
2019-05-28T20:05:53.664Z,26.10
2019-05-28T20:08:24.581Z,26.10
2019-05-28T20:10:56.829Z,26.00
2019-05-28T20:13:27.825Z,26.10
2019-05-28T20:15:58.734Z,26.10
2019-05-28T20:18:29.655Z,26.00
2019-05-28T20:21:00.617Z,26.00
2019-05-28T20:23:31.593Z,26.00
2019-05-28T20:26:02.608Z,26.00
2019-05-28T20:28:33.473Z,26.00
2019-05-28T20:31:04.392Z,26.00
2019-05-28T20:33:35.249Z,26.00
2019-05-28T20:36:06.298Z,26.00
2019-05-28T20:38:37.124Z,25.90
2019-05-28T20:41:08.101Z,25.90
2019-05-28T20:43:39.069Z,25.90
2019-05-28T20:46:10.674Z,25.90
2019-05-28T20:48:41.639Z,25.90
2019-05-28T20:51:20.182Z,25.90
2019-05-28T20:53:44.672Z,25.90
2019-05-28T20:56:15.488Z,25.90
2019-05-28T20:58:47.342Z,25.90
2019-05-28T21:01:18.535Z,25.80
2019-05-28T21:03:49.749Z,25.80
2019-05-28T21:06:20.713Z,25.90
2019-05-28T21:08:58.240Z,25.80
2019-05-28T21:11:29.089Z,25.90
2019-05-28T21:14:00.027Z,25.90
2019-05-28T21:16:30.973Z,25.90
2019-05-28T21:19:01.704Z,25.90
2019-05-28T21:21:32.531Z,25.90
2019-05-28T21:24:04.064Z,25.90
2019-05-28T21:26:34.852Z,25.90
2019-05-28T21:29:05.727Z,25.90
2019-05-28T21:31:36.443Z,25.90
2019-05-28T21:34:07.386Z,25.90
2019-05-28T21:36:38.239Z,25.80
2019-05-28T21:39:09.960Z,25.90
2019-05-28T21:41:40.841Z,25.90
2019-05-28T21:44:11.560Z,25.80
2019-05-28T21:46:42.440Z,25.80
2019-05-28T21:49:13.350Z,25.80
2019-05-28T21:51:44.235Z,25.80
2019-05-28T21:54:15.156Z,25.80
2019-05-28T21:56:45.914Z,25.80
2019-05-28T21:59:16.623Z,25.80
2019-05-28T22:01:48.609Z,25.90
2019-05-28T22:04:19.472Z,25.90
2019-05-28T22:06:50.286Z,25.90
2019-05-28T22:09:21.167Z,25.80
2019-05-28T22:11:51.954Z,25.90
2019-05-28T22:14:22.856Z,25.90
2019-05-28T22:16:53.801Z,25.80
2019-05-28T22:19:24.597Z,25.80
2019-05-28T22:21:56.261Z,25.80
2019-05-28T22:24:27.407Z,25.80
2019-05-28T22:26:58.455Z,25.80
2019-05-28T22:29:29.413Z,25.80
2019-05-28T22:32:01.495Z,25.80
2019-05-28T22:34:32.344Z,25.80
2019-05-28T22:37:04.400Z,25.80
